sensor_id;sensor_type;location;lat;lon;timestamp;P1;durP1;ratioP1;P2;durP2;ratioP2
68050;SDS011;54839;51.364;7.246;2023-02-15T00:00:17;31.13;;;21.73;;
68050;SDS011;54839;51.364;7.246;2023-02-15T00:02:43;28.20;;;20.27;;
68050;SDS011;54839;51.364;7.246;2023-02-15T00:05:09;27.27;;;20.70;;
68050;SDS011;54839;51.364;7.246;2023-02-15T00:07:34;32.87;;;22.37;;
68050;SDS011;54839;51.364;7.246;2023-02-15T00:10:00;28.23;;;19.90;;
68050;SDS011;54839;51.364;7.246;2023-02-15T00:12:25;27.17;;;18.93;;
68050;SDS011;54839;51.364;7.246;2023-02-15T00:14:51;29.30;;;21.40;;
68050;SDS011;54839;51.364;7.246;2023-02-15T00:17:16;29.80;;;20.20;;
68050;SDS011;54839;51.364;7.246;2023-02-15T00:19:42;29.83;;;20.87;;
68050;SDS011;54839;51.364;7.246;2023-02-15T00:22:07;28.47;;;21.20;;
68050;SDS011;54839;51.364;7.246;2023-02-15T00:24:33;28.10;;;21.37;;
68050;SDS011;54839;51.364;7.246;2023-02-15T00:26:59;28.93;;;19.63;;
68050;SDS011;54839;51.364;7.246;2023-02-15T00:29:24;30.37;;;21.97;;
68050;SDS011;54839;51.364;7.246;2023-02-15T00:31:50;29.80;;;20.90;;
68050;SDS011;54839;51.364;7.246;2023-02-15T00:34:20;30.27;;;20.87;;
68050;SDS011;54839;51.364;7.246;2023-02-15T00:36:48;26.93;;;19.40;;
68050;SDS011;54839;51.364;7.246;2023-02-15T00:39:14;30.33;;;20.07;;
68050;SDS011;54839;51.364;7.246;2023-02-15T00:41:40;28.03;;;21.70;;
68050;SDS011;54839;51.364;7.246;2023-02-15T00:44:06;28.90;;;20.17;;
68050;SDS011;54839;51.364;7.246;2023-02-15T00:46:32;32.00;;;22.07;;
68050;SDS011;54839;51.364;7.246;2023-02-15T00:48:58;32.73;;;23.17;;
68050;SDS011;54839;51.364;7.246;2023-02-15T00:51:24;36.73;;;23.00;;
68050;SDS011;54839;51.364;7.246;2023-02-15T00:53:50;36.50;;;22.20;;
68050;SDS011;54839;51.364;7.246;2023-02-15T00:56:15;32.60;;;22.30;;
68050;SDS011;54839;51.364;7.246;2023-02-15T00:58:41;30.53;;;21.70;;
68050;SDS011;54839;51.364;7.246;2023-02-15T01:01:12;35.40;;;21.83;;
68050;SDS011;54839;51.364;7.246;2023-02-15T01:03:39;33.07;;;22.50;;
68050;SDS011;54839;51.364;7.246;2023-02-15T01:06:06;34.70;;;23.27;;
68050;SDS011;54839;51.364;7.246;2023-02-15T01:08:32;38.60;;;25.80;;
68050;SDS011;54839;51.364;7.246;2023-02-15T01:11:05;36.20;;;23.10;;
68050;SDS011;54839;51.364;7.246;2023-02-15T01:13:33;30.33;;;22.17;;
68050;SDS011;54839;51.364;7.246;2023-02-15T01:15:59;35.50;;;24.30;;
68050;SDS011;54839;51.364;7.246;2023-02-15T01:18:24;31.97;;;23.67;;
68050;SDS011;54839;51.364;7.246;2023-02-15T01:20:51;34.83;;;22.37;;
68050;SDS011;54839;51.364;7.246;2023-02-15T01:23:16;36.00;;;24.27;;
68050;SDS011;54839;51.364;7.246;2023-02-15T01:25:42;31.00;;;20.70;;
68050;SDS011;54839;51.364;7.246;2023-02-15T01:28:08;35.37;;;22.07;;
68050;SDS011;54839;51.364;7.246;2023-02-15T01:30:33;34.47;;;24.03;;
68050;SDS011;54839;51.364;7.246;2023-02-15T01:32:59;38.27;;;24.10;;
68050;SDS011;54839;51.364;7.246;2023-02-15T01:35:25;31.43;;;22.67;;
68050;SDS011;54839;51.364;7.246;2023-02-15T01:37:51;32.33;;;23.90;;
68050;SDS011;54839;51.364;7.246;2023-02-15T01:40:17;33.87;;;24.87;;
68050;SDS011;54839;51.364;7.246;2023-02-15T01:42:43;30.60;;;23.70;;
68050;SDS011;54839;51.364;7.246;2023-02-15T01:47:52;38.37;;;24.97;;
68050;SDS011;54839;51.364;7.246;2023-02-15T01:50:28;30.70;;;21.63;;
68050;SDS011;54839;51.364;7.246;2023-02-15T01:53:09;34.23;;;24.17;;
68050;SDS011;54839;51.364;7.246;2023-02-15T01:56:01;36.03;;;23.70;;
68050;SDS011;54839;51.364;7.246;2023-02-15T01:58:32;32.53;;;22.80;;
68050;SDS011;54839;51.364;7.246;2023-02-15T02:01:00;32.90;;;22.30;;
68050;SDS011;54839;51.364;7.246;2023-02-15T02:03:36;35.13;;;23.50;;
68050;SDS011;54839;51.364;7.246;2023-02-15T02:06:06;29.23;;;23.10;;
68050;SDS011;54839;51.364;7.246;2023-02-15T02:08:32;33.93;;;23.30;;
68050;SDS011;54839;51.364;7.246;2023-02-15T02:10:58;34.20;;;24.77;;
68050;SDS011;54839;51.364;7.246;2023-02-15T02:13:23;37.03;;;23.70;;
68050;SDS011;54839;51.364;7.246;2023-02-15T02:16:00;36.20;;;23.80;;
68050;SDS011;54839;51.364;7.246;2023-02-15T02:18:47;32.43;;;24.60;;
68050;SDS011;54839;51.364;7.246;2023-02-15T02:21:42;30.97;;;22.40;;
68050;SDS011;54839;51.364;7.246;2023-02-15T02:24:55;37.97;;;23.67;;
68050;SDS011;54839;51.364;7.246;2023-02-15T02:38:52;37.80;;;22.10;;
68050;SDS011;54839;51.364;7.246;2023-02-15T02:49:40;32.60;;;23.70;;
68050;SDS011;54839;51.364;7.246;2023-02-15T02:55:22;32.67;;;22.47;;
68050;SDS011;54839;51.364;7.246;2023-02-15T02:58:24;30.23;;;21.93;;
68050;SDS011;54839;51.364;7.246;2023-02-15T03:01:00;40.47;;;25.07;;
68050;SDS011;54839;51.364;7.246;2023-02-15T03:06:03;34.87;;;23.67;;
68050;SDS011;54839;51.364;7.246;2023-02-15T03:08:44;40.63;;;27.00;;
68050;SDS011;54839;51.364;7.246;2023-02-15T03:11:16;32.27;;;23.07;;
68050;SDS011;54839;51.364;7.246;2023-02-15T03:13:42;33.83;;;24.57;;
68050;SDS011;54839;51.364;7.246;2023-02-15T03:16:09;33.10;;;23.80;;
68050;SDS011;54839;51.364;7.246;2023-02-15T03:18:55;36.90;;;25.40;;
68050;SDS011;54839;51.364;7.246;2023-02-15T03:21:31;31.67;;;23.17;;
68050;SDS011;54839;51.364;7.246;2023-02-15T03:24:12;34.43;;;23.30;;
68050;SDS011;54839;51.364;7.246;2023-02-15T03:26:45;33.53;;;22.07;;
68050;SDS011;54839;51.364;7.246;2023-02-15T03:29:13;34.73;;;25.60;;
68050;SDS011;54839;51.364;7.246;2023-02-15T03:31:41;37.53;;;25.20;;
68050;SDS011;54839;51.364;7.246;2023-02-15T03:34:11;30.77;;;22.50;;
68050;SDS011;54839;51.364;7.246;2023-02-15T03:36:41;39.53;;;25.40;;
68050;SDS011;54839;51.364;7.246;2023-02-15T03:42:17;33.70;;;23.40;;
68050;SDS011;54839;51.364;7.246;2023-02-15T03:44:51;34.60;;;23.70;;
68050;SDS011;54839;51.364;7.246;2023-02-15T03:47:25;34.00;;;23.90;;
68050;SDS011;54839;51.364;7.246;2023-02-15T03:49:55;30.77;;;23.23;;
68050;SDS011;54839;51.364;7.246;2023-02-15T03:52:53;33.37;;;22.57;;
68050;SDS011;54839;51.364;7.246;2023-02-15T03:55:20;33.53;;;23.53;;
68050;SDS011;54839;51.364;7.246;2023-02-15T03:57:45;35.60;;;23.90;;
68050;SDS011;54839;51.364;7.246;2023-02-15T04:00:30;39.17;;;26.37;;
68050;SDS011;54839;51.364;7.246;2023-02-15T04:03:27;42.80;;;24.47;;
68050;SDS011;54839;51.364;7.246;2023-02-15T04:05:58;34.63;;;24.00;;
68050;SDS011;54839;51.364;7.246;2023-02-15T04:08:26;37.73;;;24.63;;
68050;SDS011;54839;51.364;7.246;2023-02-15T04:11:11;39.00;;;26.60;;
68050;SDS011;54839;51.364;7.246;2023-02-15T04:13:36;35.60;;;24.23;;
68050;SDS011;54839;51.364;7.246;2023-02-15T04:16:02;42.43;;;27.07;;
68050;SDS011;54839;51.364;7.246;2023-02-15T04:18:28;39.23;;;26.40;;
68050;SDS011;54839;51.364;7.246;2023-02-15T04:21:17;33.77;;;22.80;;
68050;SDS011;54839;51.364;7.246;2023-02-15T04:24:03;37.63;;;23.80;;
68050;SDS011;54839;51.364;7.246;2023-02-15T04:26:47;34.30;;;24.20;;
68050;SDS011;54839;51.364;7.246;2023-02-15T04:29:13;33.53;;;22.80;;
68050;SDS011;54839;51.364;7.246;2023-02-15T04:31:40;32.00;;;24.00;;
68050;SDS011;54839;51.364;7.246;2023-02-15T04:34:05;36.43;;;25.70;;
68050;SDS011;54839;51.364;7.246;2023-02-15T04:36:31;35.63;;;23.87;;
68050;SDS011;54839;51.364;7.246;2023-02-15T04:38:57;36.43;;;25.60;;
68050;SDS011;54839;51.364;7.246;2023-02-15T04:41:22;36.73;;;24.37;;
68050;SDS011;54839;51.364;7.246;2023-02-15T04:43:47;43.67;;;26.80;;
68050;SDS011;54839;51.364;7.246;2023-02-15T04:46:13;36.17;;;25.77;;
68050;SDS011;54839;51.364;7.246;2023-02-15T04:48:38;36.50;;;24.77;;
68050;SDS011;54839;51.364;7.246;2023-02-15T04:51:07;37.23;;;24.97;;
68050;SDS011;54839;51.364;7.246;2023-02-15T04:53:33;40.60;;;26.27;;
68050;SDS011;54839;51.364;7.246;2023-02-15T04:55:59;34.23;;;24.00;;
68050;SDS011;54839;51.364;7.246;2023-02-15T04:58:24;37.70;;;25.87;;
68050;SDS011;54839;51.364;7.246;2023-02-15T05:00:50;34.57;;;24.10;;
68050;SDS011;54839;51.364;7.246;2023-02-15T05:03:15;43.20;;;26.20;;
68050;SDS011;54839;51.364;7.246;2023-02-15T05:05:41;37.73;;;25.23;;
68050;SDS011;54839;51.364;7.246;2023-02-15T05:08:07;42.17;;;25.97;;
68050;SDS011;54839;51.364;7.246;2023-02-15T05:10:32;45.77;;;27.63;;
68050;SDS011;54839;51.364;7.246;2023-02-15T05:12:58;36.00;;;24.87;;
68050;SDS011;54839;51.364;7.246;2023-02-15T05:15:23;34.07;;;24.10;;
68050;SDS011;54839;51.364;7.246;2023-02-15T05:17:49;36.30;;;23.50;;
68050;SDS011;54839;51.364;7.246;2023-02-15T05:20:14;37.83;;;24.97;;
68050;SDS011;54839;51.364;7.246;2023-02-15T05:22:40;36.00;;;24.57;;
68050;SDS011;54839;51.364;7.246;2023-02-15T05:25:06;32.80;;;24.90;;
68050;SDS011;54839;51.364;7.246;2023-02-15T05:27:52;34.23;;;24.23;;
68050;SDS011;54839;51.364;7.246;2023-02-15T05:30:36;43.67;;;23.50;;
68050;SDS011;54839;51.364;7.246;2023-02-15T05:33:01;40.43;;;26.07;;
68050;SDS011;54839;51.364;7.246;2023-02-15T05:35:27;37.70;;;25.00;;
68050;SDS011;54839;51.364;7.246;2023-02-15T05:37:52;34.43;;;23.37;;
68050;SDS011;54839;51.364;7.246;2023-02-15T05:40:18;35.77;;;24.80;;
68050;SDS011;54839;51.364;7.246;2023-02-15T05:42:43;33.77;;;23.10;;
68050;SDS011;54839;51.364;7.246;2023-02-15T05:45:09;42.70;;;26.03;;
68050;SDS011;54839;51.364;7.246;2023-02-15T05:47:34;37.30;;;24.80;;
68050;SDS011;54839;51.364;7.246;2023-02-15T05:50:00;39.70;;;23.77;;
68050;SDS011;54839;51.364;7.246;2023-02-15T05:52:25;34.00;;;22.57;;
68050;SDS011;54839;51.364;7.246;2023-02-15T05:54:51;39.50;;;26.07;;
68050;SDS011;54839;51.364;7.246;2023-02-15T05:57:16;34.67;;;24.13;;
68050;SDS011;54839;51.364;7.246;2023-02-15T05:59:42;37.93;;;24.90;;
68050;SDS011;54839;51.364;7.246;2023-02-15T06:02:07;42.30;;;22.27;;
68050;SDS011;54839;51.364;7.246;2023-02-15T06:04:33;36.90;;;25.63;;
68050;SDS011;54839;51.364;7.246;2023-02-15T06:06:58;37.40;;;23.83;;
68050;SDS011;54839;51.364;7.246;2023-02-15T06:09:24;35.20;;;24.13;;
68050;SDS011;54839;51.364;7.246;2023-02-15T06:11:49;35.47;;;22.23;;
68050;SDS011;54839;51.364;7.246;2023-02-15T06:14:15;39.03;;;26.30;;
68050;SDS011;54839;51.364;7.246;2023-02-15T06:16:41;35.90;;;22.80;;
68050;SDS011;54839;51.364;7.246;2023-02-15T06:19:06;42.30;;;23.77;;
68050;SDS011;54839;51.364;7.246;2023-02-15T06:21:32;31.63;;;22.50;;
68050;SDS011;54839;51.364;7.246;2023-02-15T06:23:57;38.93;;;24.37;;
68050;SDS011;54839;51.364;7.246;2023-02-15T06:26:23;37.70;;;23.50;;
68050;SDS011;54839;51.364;7.246;2023-02-15T06:28:48;32.70;;;23.40;;
68050;SDS011;54839;51.364;7.246;2023-02-15T06:31:14;34.07;;;24.23;;
68050;SDS011;54839;51.364;7.246;2023-02-15T06:33:40;45.67;;;24.30;;
68050;SDS011;54839;51.364;7.246;2023-02-15T06:36:05;50.60;;;29.13;;
68050;SDS011;54839;51.364;7.246;2023-02-15T06:38:31;33.00;;;23.53;;
68050;SDS011;54839;51.364;7.246;2023-02-15T06:40:56;37.40;;;23.03;;
68050;SDS011;54839;51.364;7.246;2023-02-15T06:43:22;35.13;;;22.20;;
68050;SDS011;54839;51.364;7.246;2023-02-15T06:45:47;35.50;;;21.77;;
68050;SDS011;54839;51.364;7.246;2023-02-15T06:48:13;34.97;;;21.73;;
68050;SDS011;54839;51.364;7.246;2023-02-15T06:50:39;32.60;;;21.30;;
68050;SDS011;54839;51.364;7.246;2023-02-15T06:53:04;38.63;;;22.50;;
68050;SDS011;54839;51.364;7.246;2023-02-15T06:55:30;39.57;;;22.77;;
68050;SDS011;54839;51.364;7.246;2023-02-15T06:57:55;40.63;;;22.60;;
68050;SDS011;54839;51.364;7.246;2023-02-15T07:00:21;32.50;;;21.40;;
68050;SDS011;54839;51.364;7.246;2023-02-15T07:02:48;41.60;;;21.57;;
68050;SDS011;54839;51.364;7.246;2023-02-15T07:05:20;45.63;;;23.83;;
68050;SDS011;54839;51.364;7.246;2023-02-15T07:07:46;31.50;;;21.93;;
68050;SDS011;54839;51.364;7.246;2023-02-15T07:10:12;34.60;;;21.87;;
68050;SDS011;54839;51.364;7.246;2023-02-15T07:12:37;31.70;;;21.30;;
68050;SDS011;54839;51.364;7.246;2023-02-15T07:15:07;34.27;;;21.13;;
68050;SDS011;54839;51.364;7.246;2023-02-15T07:17:34;32.80;;;22.70;;
68050;SDS011;54839;51.364;7.246;2023-02-15T07:20:00;32.50;;;21.23;;
68050;SDS011;54839;51.364;7.246;2023-02-15T07:22:27;38.43;;;22.63;;
68050;SDS011;54839;51.364;7.246;2023-02-15T07:24:53;28.90;;;19.67;;
68050;SDS011;54839;51.364;7.246;2023-02-15T07:27:19;41.20;;;22.80;;
68050;SDS011;54839;51.364;7.246;2023-02-15T07:29:46;30.70;;;19.50;;
68050;SDS011;54839;51.364;7.246;2023-02-15T07:32:11;30.63;;;19.13;;
68050;SDS011;54839;51.364;7.246;2023-02-15T07:34:37;29.40;;;20.87;;
68050;SDS011;54839;51.364;7.246;2023-02-15T07:37:02;42.27;;;21.43;;
68050;SDS011;54839;51.364;7.246;2023-02-15T07:39:29;34.73;;;20.93;;
68050;SDS011;54839;51.364;7.246;2023-02-15T07:41:55;31.07;;;19.97;;
68050;SDS011;54839;51.364;7.246;2023-02-15T07:44:20;32.60;;;20.50;;
68050;SDS011;54839;51.364;7.246;2023-02-15T07:46:45;34.07;;;20.20;;
68050;SDS011;54839;51.364;7.246;2023-02-15T07:49:11;30.47;;;19.63;;
68050;SDS011;54839;51.364;7.246;2023-02-15T07:51:37;31.67;;;21.70;;
68050;SDS011;54839;51.364;7.246;2023-02-15T07:54:02;32.30;;;20.07;;
68050;SDS011;54839;51.364;7.246;2023-02-15T07:56:28;31.03;;;19.10;;
68050;SDS011;54839;51.364;7.246;2023-02-15T07:58:53;25.67;;;19.20;;
68050;SDS011;54839;51.364;7.246;2023-02-15T08:01:32;31.37;;;19.23;;
68050;SDS011;54839;51.364;7.246;2023-02-15T08:04:02;38.43;;;20.17;;
68050;SDS011;54839;51.364;7.246;2023-02-15T08:06:31;27.50;;;20.40;;
68050;SDS011;54839;51.364;7.246;2023-02-15T08:08:58;29.37;;;18.77;;
68050;SDS011;54839;51.364;7.246;2023-02-15T08:11:28;27.33;;;17.57;;
68050;SDS011;54839;51.364;7.246;2023-02-15T08:14:05;30.50;;;20.53;;
68050;SDS011;54839;51.364;7.246;2023-02-15T08:19:17;33.80;;;19.53;;
68050;SDS011;54839;51.364;7.246;2023-02-15T08:22:04;33.00;;;20.27;;
68050;SDS011;54839;51.364;7.246;2023-02-15T08:24:32;29.53;;;20.10;;
68050;SDS011;54839;51.364;7.246;2023-02-15T08:26:59;28.40;;;18.27;;
68050;SDS011;54839;51.364;7.246;2023-02-15T08:29:27;30.53;;;18.67;;
68050;SDS011;54839;51.364;7.246;2023-02-15T08:31:54;27.53;;;18.07;;
68050;SDS011;54839;51.364;7.246;2023-02-15T08:34:23;29.83;;;18.37;;
68050;SDS011;54839;51.364;7.246;2023-02-15T08:36:49;25.57;;;18.77;;
68050;SDS011;54839;51.364;7.246;2023-02-15T08:39:16;25.23;;;18.07;;
68050;SDS011;54839;51.364;7.246;2023-02-15T08:41:42;28.10;;;16.53;;
68050;SDS011;54839;51.364;7.246;2023-02-15T08:44:10;30.10;;;19.60;;
68050;SDS011;54839;51.364;7.246;2023-02-15T08:46:39;28.67;;;19.77;;
68050;SDS011;54839;51.364;7.246;2023-02-15T08:49:07;37.17;;;18.17;;
68050;SDS011;54839;51.364;7.246;2023-02-15T08:51:33;29.50;;;18.40;;
68050;SDS011;54839;51.364;7.246;2023-02-15T08:54:01;35.10;;;17.53;;
68050;SDS011;54839;51.364;7.246;2023-02-15T08:56:33;28.97;;;17.87;;
68050;SDS011;54839;51.364;7.246;2023-02-15T08:59:01;26.30;;;17.80;;
68050;SDS011;54839;51.364;7.246;2023-02-15T09:01:28;30.23;;;17.40;;
68050;SDS011;54839;51.364;7.246;2023-02-15T09:03:57;24.53;;;15.93;;
68050;SDS011;54839;51.364;7.246;2023-02-15T09:06:24;27.70;;;17.73;;
68050;SDS011;54839;51.364;7.246;2023-02-15T09:08:50;24.83;;;17.47;;
68050;SDS011;54839;51.364;7.246;2023-02-15T09:11:21;25.73;;;16.23;;
68050;SDS011;54839;51.364;7.246;2023-02-15T09:13:55;26.63;;;15.53;;
68050;SDS011;54839;51.364;7.246;2023-02-15T09:16:23;23.40;;;16.90;;
68050;SDS011;54839;51.364;7.246;2023-02-15T09:18:50;25.67;;;16.10;;
68050;SDS011;54839;51.364;7.246;2023-02-15T09:21:17;24.20;;;16.00;;
68050;SDS011;54839;51.364;7.246;2023-02-15T09:23:45;24.87;;;17.50;;
68050;SDS011;54839;51.364;7.246;2023-02-15T09:26:12;25.23;;;17.60;;
68050;SDS011;54839;51.364;7.246;2023-02-15T09:28:40;25.40;;;16.80;;
68050;SDS011;54839;51.364;7.246;2023-02-15T09:33:39;25.57;;;15.47;;
68050;SDS011;54839;51.364;7.246;2023-02-15T09:36:12;27.17;;;14.93;;
68050;SDS011;54839;51.364;7.246;2023-02-15T09:38:43;25.00;;;16.00;;
68050;SDS011;54839;51.364;7.246;2023-02-15T09:43:57;30.37;;;16.67;;
68050;SDS011;54839;51.364;7.246;2023-02-15T09:52:14;26.77;;;15.60;;
68050;SDS011;54839;51.364;7.246;2023-02-15T09:55:09;16.70;;;13.07;;
68050;SDS011;54839;51.364;7.246;2023-02-15T10:01:15;20.97;;;12.77;;
68050;SDS011;54839;51.364;7.246;2023-02-15T10:04:00;17.23;;;12.63;;
68050;SDS011;54839;51.364;7.246;2023-02-15T10:06:38;19.60;;;12.30;;
68050;SDS011;54839;51.364;7.246;2023-02-15T10:09:28;16.80;;;12.57;;
68050;SDS011;54839;51.364;7.246;2023-02-15T10:12:22;17.90;;;12.13;;
68050;SDS011;54839;51.364;7.246;2023-02-15T10:15:24;24.30;;;13.50;;
68050;SDS011;54839;51.364;7.246;2023-02-15T10:21:14;18.33;;;12.17;;
68050;SDS011;54839;51.364;7.246;2023-02-15T10:29:09;21.53;;;13.27;;
68050;SDS011;54839;51.364;7.246;2023-02-15T10:31:55;22.53;;;12.70;;
68050;SDS011;54839;51.364;7.246;2023-02-15T10:48:41;22.53;;;14.03;;
68050;SDS011;54839;51.364;7.246;2023-02-15T10:56:43;19.03;;;13.00;;
68050;SDS011;54839;51.364;7.246;2023-02-15T10:59:30;20.43;;;12.70;;
68050;SDS011;54839;51.364;7.246;2023-02-15T11:02:18;21.70;;;12.23;;
68050;SDS011;54839;51.364;7.246;2023-02-15T11:04:53;28.03;;;12.77;;
68050;SDS011;54839;51.364;7.246;2023-02-15T11:07:45;16.77;;;11.17;;
68050;SDS011;54839;51.364;7.246;2023-02-15T11:10:19;20.57;;;10.33;;
68050;SDS011;54839;51.364;7.246;2023-02-15T11:13:09;18.37;;;10.77;;
68050;SDS011;54839;51.364;7.246;2023-02-15T11:18:21;18.43;;;10.53;;
68050;SDS011;54839;51.364;7.246;2023-02-15T11:23:21;15.70;;;11.37;;
68050;SDS011;54839;51.364;7.246;2023-02-15T11:25:57;17.47;;;10.20;;
68050;SDS011;54839;51.364;7.246;2023-02-15T11:28:33;14.83;;;11.20;;
68050;SDS011;54839;51.364;7.246;2023-02-15T11:31:12;16.87;;;11.00;;
68050;SDS011;54839;51.364;7.246;2023-02-15T11:33:43;13.70;;;10.73;;
68050;SDS011;54839;51.364;7.246;2023-02-15T11:36:18;16.80;;;10.60;;
68050;SDS011;54839;51.364;7.246;2023-02-15T11:38:47;15.33;;;11.20;;
68050;SDS011;54839;51.364;7.246;2023-02-15T11:41:18;13.80;;;10.47;;
68050;SDS011;54839;51.364;7.246;2023-02-15T11:44:00;21.13;;;11.30;;
68050;SDS011;54839;51.364;7.246;2023-02-15T11:46:32;23.13;;;13.40;;
68050;SDS011;54839;51.364;7.246;2023-02-15T11:48:58;14.53;;;11.10;;
68050;SDS011;54839;51.364;7.246;2023-02-15T11:51:24;15.63;;;11.23;;
68050;SDS011;54839;51.364;7.246;2023-02-15T11:53:52;18.03;;;11.27;;
68050;SDS011;54839;51.364;7.246;2023-02-15T11:56:20;15.07;;;11.13;;
68050;SDS011;54839;51.364;7.246;2023-02-15T11:58:57;14.83;;;9.93;;
68050;SDS011;54839;51.364;7.246;2023-02-15T12:01:31;17.80;;;10.83;;
68050;SDS011;54839;51.364;7.246;2023-02-15T12:04:43;18.20;;;12.83;;
68050;SDS011;54839;51.364;7.246;2023-02-15T12:06:53;15.93;;;11.00;;
68050;SDS011;54839;51.364;7.246;2023-02-15T12:12:20;22.10;;;10.87;;
68050;SDS011;54839;51.364;7.246;2023-02-15T12:14:57;17.33;;;10.90;;
68050;SDS011;54839;51.364;7.246;2023-02-15T12:17:24;18.23;;;10.53;;
68050;SDS011;54839;51.364;7.246;2023-02-15T12:19:53;14.40;;;10.20;;
68050;SDS011;54839;51.364;7.246;2023-02-15T12:22:27;12.70;;;9.70;;
68050;SDS011;54839;51.364;7.246;2023-02-15T12:24:59;17.83;;;10.80;;
68050;SDS011;54839;51.364;7.246;2023-02-15T12:27:31;19.00;;;10.80;;
68050;SDS011;54839;51.364;7.246;2023-02-15T12:32:29;14.47;;;11.20;;
68050;SDS011;54839;51.364;7.246;2023-02-15T12:35:00;24.63;;;11.40;;
68050;SDS011;54839;51.364;7.246;2023-02-15T12:37:32;15.33;;;10.60;;
68050;SDS011;54839;51.364;7.246;2023-02-15T12:39:59;15.40;;;12.07;;
68050;SDS011;54839;51.364;7.246;2023-02-15T12:42:28;15.63;;;10.33;;
68050;SDS011;54839;51.364;7.246;2023-02-15T12:45:40;25.00;;;12.53;;
68050;SDS011;54839;51.364;7.246;2023-02-15T12:50:33;20.23;;;11.37;;
68050;SDS011;54839;51.364;7.246;2023-02-15T12:55:55;14.37;;;9.20;;
68050;SDS011;54839;51.364;7.246;2023-02-15T13:03:35;26.53;;;13.37;;
68050;SDS011;54839;51.364;7.246;2023-02-15T13:06:02;21.43;;;13.67;;
68050;SDS011;54839;51.364;7.246;2023-02-15T13:08:34;14.50;;;8.90;;
68050;SDS011;54839;51.364;7.246;2023-02-15T13:11:10;15.40;;;9.97;;
68050;SDS011;54839;51.364;7.246;2023-02-15T13:16:33;16.07;;;9.03;;
68050;SDS011;54839;51.364;7.246;2023-02-15T13:19:03;16.27;;;9.70;;
68050;SDS011;54839;51.364;7.246;2023-02-15T13:21:37;15.57;;;9.33;;
68050;SDS011;54839;51.364;7.246;2023-02-15T13:24:11;17.53;;;9.37;;
68050;SDS011;54839;51.364;7.246;2023-02-15T13:26:42;15.93;;;7.97;;
68050;SDS011;54839;51.364;7.246;2023-02-15T13:29:28;13.43;;;9.20;;
68050;SDS011;54839;51.364;7.246;2023-02-15T13:31:57;14.17;;;8.90;;
68050;SDS011;54839;51.364;7.246;2023-02-15T13:34:36;13.40;;;9.70;;
68050;SDS011;54839;51.364;7.246;2023-02-15T13:39:50;13.60;;;9.57;;
68050;SDS011;54839;51.364;7.246;2023-02-15T13:42:39;14.43;;;9.17;;
68050;SDS011;54839;51.364;7.246;2023-02-15T13:51:50;14.60;;;9.83;;
68050;SDS011;54839;51.364;7.246;2023-02-15T13:56:40;16.67;;;10.90;;
68050;SDS011;54839;51.364;7.246;2023-02-15T13:59:23;12.97;;;9.30;;
68050;SDS011;54839;51.364;7.246;2023-02-15T14:10:25;17.50;;;11.00;;
68050;SDS011;54839;51.364;7.246;2023-02-15T14:15:23;13.23;;;10.07;;
68050;SDS011;54839;51.364;7.246;2023-02-15T14:18:09;17.47;;;11.57;;
68050;SDS011;54839;51.364;7.246;2023-02-15T14:21:01;19.13;;;11.00;;
68050;SDS011;54839;51.364;7.246;2023-02-15T14:23:43;13.67;;;10.20;;
68050;SDS011;54839;51.364;7.246;2023-02-15T14:31:47;14.10;;;9.77;;
68050;SDS011;54839;51.364;7.246;2023-02-15T14:34:22;15.80;;;11.83;;
68050;SDS011;54839;51.364;7.246;2023-02-15T14:36:52;13.90;;;10.43;;
68050;SDS011;54839;51.364;7.246;2023-02-15T14:39:30;15.50;;;11.40;;
68050;SDS011;54839;51.364;7.246;2023-02-15T14:42:38;11.07;;;9.80;;
68050;SDS011;54839;51.364;7.246;2023-02-15T14:45:24;14.50;;;12.00;;
68050;SDS011;54839;51.364;7.246;2023-02-15T14:48:10;15.80;;;10.70;;
68050;SDS011;54839;51.364;7.246;2023-02-15T14:50:50;20.70;;;11.93;;
68050;SDS011;54839;51.364;7.246;2023-02-15T14:56:13;12.20;;;10.50;;
68050;SDS011;54839;51.364;7.246;2023-02-15T15:01:25;20.70;;;10.70;;
68050;SDS011;54839;51.364;7.246;2023-02-15T15:03:56;15.87;;;10.47;;
68050;SDS011;54839;51.364;7.246;2023-02-15T15:06:31;19.47;;;11.43;;
68050;SDS011;54839;51.364;7.246;2023-02-15T15:09:00;18.43;;;11.33;;
68050;SDS011;54839;51.364;7.246;2023-02-15T15:14:08;16.10;;;10.90;;
68050;SDS011;54839;51.364;7.246;2023-02-15T15:19:00;16.33;;;11.63;;
68050;SDS011;54839;51.364;7.246;2023-02-15T15:33:29;17.43;;;12.33;;
68050;SDS011;54839;51.364;7.246;2023-02-15T15:39:31;16.17;;;10.03;;
68050;SDS011;54839;51.364;7.246;2023-02-15T15:45:05;14.37;;;11.53;;
68050;SDS011;54839;51.364;7.246;2023-02-15T15:50:38;15.67;;;11.37;;
68050;SDS011;54839;51.364;7.246;2023-02-15T15:53:05;16.13;;;11.57;;
68050;SDS011;54839;51.364;7.246;2023-02-15T15:55:41;20.70;;;13.47;;
68050;SDS011;54839;51.364;7.246;2023-02-15T15:58:10;17.10;;;12.60;;
68050;SDS011;54839;51.364;7.246;2023-02-15T16:00:42;16.40;;;12.10;;
68050;SDS011;54839;51.364;7.246;2023-02-15T16:03:15;15.70;;;11.60;;
68050;SDS011;54839;51.364;7.246;2023-02-15T16:05:45;22.47;;;13.50;;
68050;SDS011;54839;51.364;7.246;2023-02-15T16:08:11;18.10;;;12.47;;
68050;SDS011;54839;51.364;7.246;2023-02-15T16:10:36;21.90;;;12.33;;
68050;SDS011;54839;51.364;7.246;2023-02-15T16:13:03;16.60;;;12.70;;
68050;SDS011;54839;51.364;7.246;2023-02-15T16:15:33;20.90;;;14.00;;
68050;SDS011;54839;51.364;7.246;2023-02-15T16:18:11;23.73;;;13.63;;
68050;SDS011;54839;51.364;7.246;2023-02-15T16:20:40;21.53;;;12.97;;
68050;SDS011;54839;51.364;7.246;2023-02-15T16:25:53;15.20;;;12.33;;
68050;SDS011;54839;51.364;7.246;2023-02-15T16:28:32;21.33;;;12.60;;
68050;SDS011;54839;51.364;7.246;2023-02-15T16:31:06;28.53;;;13.73;;
68050;SDS011;54839;51.364;7.246;2023-02-15T16:33:39;17.90;;;13.43;;
68050;SDS011;54839;51.364;7.246;2023-02-15T16:36:09;20.37;;;13.13;;
68050;SDS011;54839;51.364;7.246;2023-02-15T16:41:21;19.47;;;14.27;;
68050;SDS011;54839;51.364;7.246;2023-02-15T16:43:50;18.57;;;13.50;;
68050;SDS011;54839;51.364;7.246;2023-02-15T16:46:23;18.47;;;11.60;;
68050;SDS011;54839;51.364;7.246;2023-02-15T16:48:53;20.60;;;14.50;;
68050;SDS011;54839;51.364;7.246;2023-02-15T16:51:22;17.50;;;12.90;;
68050;SDS011;54839;51.364;7.246;2023-02-15T16:53:50;18.30;;;13.20;;
68050;SDS011;54839;51.364;7.246;2023-02-15T16:56:22;20.73;;;14.63;;
68050;SDS011;54839;51.364;7.246;2023-02-15T16:58:52;22.30;;;13.93;;
68050;SDS011;54839;51.364;7.246;2023-02-15T17:01:20;21.83;;;14.97;;
68050;SDS011;54839;51.364;7.246;2023-02-15T17:03:49;19.83;;;14.37;;
68050;SDS011;54839;51.364;7.246;2023-02-15T17:06:23;23.53;;;15.63;;
68050;SDS011;54839;51.364;7.246;2023-02-15T17:08:51;23.97;;;15.00;;
68050;SDS011;54839;51.364;7.246;2023-02-15T17:11:18;26.10;;;14.40;;
68050;SDS011;54839;51.364;7.246;2023-02-15T17:19:18;17.87;;;14.30;;
68050;SDS011;54839;51.364;7.246;2023-02-15T17:22:02;18.27;;;13.90;;
68050;SDS011;54839;51.364;7.246;2023-02-15T17:24:37;18.13;;;14.67;;
68050;SDS011;54839;51.364;7.246;2023-02-15T17:27:18;19.83;;;13.70;;
68050;SDS011;54839;51.364;7.246;2023-02-15T17:29:56;16.77;;;13.53;;
68050;SDS011;54839;51.364;7.246;2023-02-15T17:32:30;26.20;;;14.80;;
68050;SDS011;54839;51.364;7.246;2023-02-15T17:35:06;26.30;;;15.53;;
68050;SDS011;54839;51.364;7.246;2023-02-15T17:42:46;25.13;;;16.70;;